Time;durP1;ratioP1;P1;durP2;ratioP2;P2;SDS_P1;SDS_P2;PMS_P1;PMS_P2;Temp;Humidity;BMP_temperature;BMP_pressure;BME280_temperature;BME280_humidity;BME280_pressure;Samples;Min_cycle;Max_cycle;Signal;HPM_P1;HPM_P2
2024/03/26 00:00:13;;;;;;;22.37;13.60;;;;;22.00;98862.00;;;;2053093;28;20289;-62
2024/03/26 00:01:13;;;;;;;21.00;12.30;;;;;22.00;98800.00;;;;2061304;28;20219;-63
2024/03/26 00:02:14;;;;;;;21.93;13.20;;;;;22.00;98812.00;;;;2062583;28;20587;-62
2024/03/26 00:03:14;;;;;;;19.17;12.50;;;;;22.00;98809.00;;;;2064545;28;20213;-61
2024/03/26 00:04:14;;;;;;;21.30;12.90;;;;;22.00;98812.00;;;;2063321;28;20211;-61
2024/03/26 00:05:15;;;;;;;18.60;12.00;;;;;22.00;98805.00;;;;2059156;28;20225;-61
2024/03/26 00:06:15;;;;;;;20.87;13.47;;;;;22.00;98808.00;;;;2067452;28;20244;-61
2024/03/26 00:07:15;;;;;;;21.53;13.07;;;;;22.00;98806.00;;;;2061059;28;20243;-63
2024/03/26 00:08:16;;;;;;;21.80;12.70;;;;;22.00;98808.00;;;;2068491;28;20218;-62
2024/03/26 00:09:16;;;;;;;17.77;11.77;;;;;22.00;98800.00;;;;2066077;28;20217;-61
2024/03/26 00:10:16;;;;;;;19.47;12.30;;;;;22.00;98797.00;;;;2051074;28;20234;-61
2024/03/26 00:11:17;;;;;;;19.47;11.27;;;;;22.00;98805.00;;;;2056531;28;20294;-61
2024/03/26 00:12:17;;;;;;;18.10;11.30;;;;;22.00;98797.00;;;;2060561;28;20284;-61
2024/03/26 00:13:17;;;;;;;18.03;12.17;;;;;21.90;98518.00;;;;2059479;28;20250;-61
2024/03/26 00:14:18;;;;;;;20.10;11.73;;;;;22.00;98783.00;;;;2058438;28;20223;-63
2024/03/26 00:15:18;;;;;;;22.77;12.47;;;;;21.90;98791.00;;;;2050309;28;20245;-62
2024/03/26 00:16:18;;;;;;;16.67;10.43;;;;;21.90;98786.00;;;;2067383;28;20249;-61
2024/03/26 00:17:19;;;;;;;17.53;11.93;;;;;21.90;98783.00;;;;2062384;28;20218;-61
2024/03/26 00:18:19;;;;;;;18.20;11.37;;;;;21.90;98777.00;;;;2066484;28;20463;-62
2024/03/26 00:19:19;;;;;;;16.43;11.30;;;;;21.90;98787.00;;;;2068344;28;20364;-61
2024/03/26 00:20:20;;;;;;;19.40;10.83;;;;;21.90;98778.00;;;;2049469;28;20233;-60
2024/03/26 00:21:20;;;;;;;18.43;11.80;;;;;21.90;98778.00;;;;2059734;28;20227;-63
2024/03/26 00:22:20;;;;;;;15.93;10.33;;;;;21.90;98773.00;;;;2060524;28;20254;-62
2024/03/26 00:23:21;;;;;;;17.37;11.10;;;;;21.90;98768.00;;;;2059700;28;20246;-60
2024/03/26 00:24:21;;;;;;;17.70;11.03;;;;;21.90;98768.00;;;;2062963;28;20234;-62
2024/03/26 00:25:22;;;;;;;15.70;11.20;;;;;21.90;98763.00;;;;2058046;28;20223;-61
2024/03/26 00:26:22;;;;;;;20.10;11.77;;;;;21.90;98769.00;;;;2059826;28;20215;-61
2024/03/26 00:27:22;;;;;;;16.10;11.37;;;;;21.90;98768.00;;;;2054120;28;20223;-63
2024/03/26 00:28:23;;;;;;;17.27;10.80;;;;;21.90;98762.00;;;;2059924;28;20305;-63
2024/03/26 00:29:23;;;;;;;16.47;11.57;;;;;21.90;98759.00;;;;2059617;28;20219;-61
2024/03/26 00:30:23;;;;;;;17.43;10.30;;;;;21.80;98759.00;;;;2045293;28;20583;-61
2024/03/26 00:31:24;;;;;;;19.53;11.20;;;;;21.90;98760.00;;;;2059183;28;20210;-62
2024/03/26 00:32:24;;;;;;;17.17;10.93;;;;;21.90;98756.00;;;;2063392;28;20261;-61
2024/03/26 00:33:24;;;;;;;17.00;10.33;;;;;21.90;98754.00;;;;2061095;28;21621;-61
2024/03/26 00:34:24;;;;;;;16.60;10.80;;;;;21.90;98665.00;;;;2055481;28;20282;-61
2024/03/26 00:35:25;;;;;;;16.20;10.17;;;;;21.90;98754.00;;;;2051399;28;20234;-63
2024/03/26 00:36:26;;;;;;;15.83;11.10;;;;;21.90;98747.00;;;;2055795;28;20607;-62
2024/03/26 00:37:26;;;;;;;14.70;9.97;;;;;21.90;98745.00;;;;2055982;28;20635;-61
2024/03/26 00:38:26;;;;;;;14.57;10.27;;;;;21.90;98748.00;;;;2059551;28;20474;-61
2024/03/26 00:39:27;;;;;;;14.90;9.50;;;;;21.80;98741.00;;;;2044866;28;20210;-61
2024/03/26 00:40:27;;;;;;;17.07;11.17;;;;;21.90;98746.00;;;;2057108;28;20226;-61
2024/03/26 00:41:27;;;;;;;15.07;9.50;;;;;21.80;98741.00;;;;2054684;28;20268;-62
2024/03/26 00:42:28;;;;;;;15.97;10.37;;;;;21.80;98745.00;;;;2058823;28;20302;-62
2024/03/26 00:43:28;;;;;;;16.47;9.90;;;;;21.80;98742.00;;;;2059946;28;20249;-61
2024/03/26 00:44:28;;;;;;;13.47;9.20;;;;;21.80;98732.00;;;;2047969;28;20232;-62
2024/03/26 00:45:29;;;;;;;14.30;9.40;;;;;21.80;98736.00;;;;2063869;28;20326;-61
2024/03/26 00:46:29;;;;;;;14.80;9.03;;;;;21.80;98726.00;;;;2062265;28;20219;-62
2024/03/26 00:47:30;;;;;;;15.50;9.73;;;;;21.80;98735.00;;;;2058835;28;20242;-63
2024/03/26 00:48:30;;;;;;;14.20;9.83;;;;;21.80;98731.00;;;;2060304;28;20223;-61
2024/03/26 00:49:30;;;;;;;14.80;9.23;;;;;21.80;98732.00;;;;2046827;28;20229;-62
2024/03/26 00:50:31;;;;;;;13.10;8.90;;;;;21.80;98724.00;;;;2064137;28;20219;-61
2024/03/26 00:51:31;;;;;;;14.40;9.47;;;;;21.80;98728.00;;;;2065828;28;20257;-61
2024/03/26 00:52:31;;;;;;;12.37;8.70;;;;;21.80;98715.00;;;;2065038;28;20282;-62
2024/03/26 00:53:32;;;;;;;12.03;8.60;;;;;21.80;98724.00;;;;2062569;28;20224;-62
2024/03/26 00:54:32;;;;;;;12.40;8.53;;;;;21.80;98722.00;;;;2054086;28;20218;-63
2024/03/26 00:55:32;;;;;;;13.07;8.87;;;;;21.80;98725.00;;;;2057463;28;20333;-61
2024/03/26 00:56:33;;;;;;;12.77;9.43;;;;;21.80;98726.00;;;;2057153;28;20247;-61
2024/03/26 00:57:33;;;;;;;14.50;8.17;;;;;21.80;98725.00;;;;2067538;28;20218;-62
2024/03/26 00:58:33;;;;;;;12.10;8.00;;;;;21.80;98724.00;;;;2066822;28;20534;-62
2024/03/26 00:59:34;;;;;;;15.00;9.07;;;;;21.80;98716.00;;;;2057024;28;20221;-63
2024/03/26 01:00:34;;;;;;;12.80;8.23;;;;;21.80;98712.00;;;;2060613;28;20215;-62
2024/03/26 01:01:34;;;;;;;12.67;8.13;;;;;21.80;98720.00;;;;2056065;28;20343;-63
2024/03/26 01:02:35;;;;;;;19.33;8.60;;;;;21.80;98720.00;;;;2051617;28;20222;-62
2024/03/26 01:03:35;;;;;;;14.30;9.30;;;;;21.80;98710.00;;;;2065293;28;20218;-61
2024/03/26 01:04:35;;;;;;;12.83;7.90;;;;;21.80;98714.00;;;;2056365;28;20261;-61
2024/03/26 01:05:36;;;;;;;17.77;9.27;;;;;21.80;98711.00;;;;2058899;28;20219;-61
2024/03/26 01:06:37;;;;;;;12.97;8.30;;;;;21.80;98713.00;;;;2064250;28;20699;-61
2024/03/26 01:07:37;;;;;;;13.00;8.40;;;;;21.80;98709.00;;;;2055337;28;20777;-62
2024/03/26 01:08:37;;;;;;;13.63;8.27;;;;;21.80;98709.00;;;;2059824;28;20469;-61
2024/03/26 01:09:38;;;;;;;13.30;8.60;;;;;21.80;98711.00;;;;2047728;28;20243;-61
2024/03/26 01:10:38;;;;;;;12.33;8.13;;;;;21.80;98704.00;;;;2058088;28;20238;-61
2024/03/26 01:11:38;;;;;;;12.37;7.70;;;;;21.80;98697.00;;;;2064957;28;20661;-64
2024/03/26 01:12:39;;;;;;;13.60;8.00;;;;;21.80;98706.00;;;;2063164;28;20242;-65
2024/03/26 01:13:40;;;;;;;11.60;7.37;;;;;21.70;98704.00;;;;2061941;28;20322;-64
2024/03/26 01:14:40;;;;;;;11.35;7.38;;;;;21.70;98699.00;;;;2061368;28;20214;-61
2024/03/26 01:15:41;;;;;;;13.40;7.30;;;;;21.80;98705.00;;;;2076689;28;20753;-61
2024/03/26 01:16:41;;;;;;;12.00;7.80;;;;;21.70;98724.00;;;;2070637;28;20202;-63
2024/03/26 01:17:41;;;;;;;11.47;6.87;;;;;21.80;98700.00;;;;2061082;28;20771;-62
2024/03/26 01:18:41;;;;;;;11.37;6.60;;;;;21.80;98699.00;;;;2061887;28;20203;-62
2024/03/26 01:19:42;;;;;;;11.33;7.30;;;;;21.80;98692.00;;;;2052872;28;20214;-61
2024/03/26 01:20:43;;;;;;;10.90;7.00;;;;;21.70;98703.00;;;;2060705;28;20295;-61
2024/03/26 01:21:43;;;;;;;13.47;7.00;;;;;21.80;98756.00;;;;2061502;28;20265;-62
2024/03/26 01:22:43;;;;;;;12.43;7.87;;;;;21.70;98691.00;;;;2064942;28;20757;-63
2024/03/26 01:23:44;;;;;;;11.83;6.70;;;;;21.70;98691.00;;;;2061908;28;20691;-62
2024/03/26 01:24:44;;;;;;;11.60;7.30;;;;;21.70;98685.00;;;;2054052;28;20674;-61
2024/03/26 01:25:44;;;;;;;10.03;6.60;;;;;21.70;98689.00;;;;2060919;28;20700;-61
2024/03/26 01:26:45;;;;;;;10.57;6.90;;;;;21.70;98691.00;;;;2060072;28;20928;-62
2024/03/26 01:27:45;;;;;;;11.80;7.53;;;;;21.70;98690.00;;;;2061740;28;20268;-61
2024/03/26 01:28:45;;;;;;;14.27;7.20;;;;;21.70;98684.00;;;;2061796;28;20207;-61
2024/03/26 01:29:46;;;;;;;11.20;7.23;;;;;21.70;98688.00;;;;2050096;28;20243;-62
2024/03/26 01:30:46;;;;;;;11.40;6.80;;;;;21.70;98679.00;;;;2065712;28;20310;-63
2024/03/26 01:31:46;;;;;;;12.17;6.50;;;;;21.70;98674.00;;;;2066501;28;20222;-62
2024/03/26 01:32:47;;;;;;;12.63;7.33;;;;;21.70;98682.00;;;;2061558;28;20211;-61
2024/03/26 01:33:47;;;;;;;9.63;6.03;;;;;21.70;98682.00;;;;2060455;28;20306;-63
2024/03/26 01:34:51;;;;;;;12.13;6.50;;;;;21.70;98678.00;;;;2054649;28;20230;-61
2024/03/26 01:35:52;;;;;;;12.20;6.35;;;;;21.70;98673.00;;;;2059227;28;20361;-61
2024/03/26 01:36:52;;;;;;;9.70;6.03;;;;;21.70;98674.00;;;;2060234;28;20202;-63
2024/03/26 01:37:53;;;;;;;11.10;6.63;;;;;21.70;98672.00;;;;2056059;28;20740;-62
2024/03/26 01:38:53;;;;;;;10.77;6.40;;;;;21.70;98676.00;;;;2062656;28;20928;-61
2024/03/26 01:39:53;;;;;;;9.00;6.03;;;;;21.70;98678.00;;;;2055851;28;20407;-60
2024/03/26 01:40:54;;;;;;;10.50;5.83;;;;;21.70;98672.00;;;;2058974;28;20227;-62
2024/03/26 01:41:54;;;;;;;9.23;6.47;;;;;21.10;98670.00;;;;2059028;28;20578;-61
2024/03/26 01:42:56;;;;;;;8.67;5.97;;;;;21.70;98672.00;;;;2061031;28;20254;-63
2024/03/26 01:43:56;;;;;;;8.40;5.90;;;;;21.70;98671.00;;;;2067477;28;20202;-61
2024/03/26 01:44:56;;;;;;;10.10;5.93;;;;;21.70;98663.00;;;;2053290;28;20222;-61
2024/03/26 01:45:57;;;;;;;10.23;5.47;;;;;21.70;98669.00;;;;2062923;28;20210;-63
2024/03/26 01:46:57;;;;;;;11.23;6.70;;;;;21.70;98664.00;;;;2061727;28;20250;-62
2024/03/26 01:47:57;;;;;;;9.23;5.83;;;;;21.70;98667.00;;;;2067548;28;20257;-62
2024/03/26 01:48:58;;;;;;;8.03;5.07;;;;;21.70;98666.00;;;;2068681;28;20221;-62
2024/03/26 01:49:58;;;;;;;9.93;6.23;;;;;21.70;98661.00;;;;2052334;28;20230;-62
2024/03/26 01:50:59;;;;;;;9.00;5.83;;;;;21.70;98662.00;;;;2063231;28;20218;-63
2024/03/26 01:51:59;;;;;;;9.73;5.60;;;;;21.70;98655.00;;;;2055434;28;20482;-62
2024/03/26 01:52:59;;;;;;;10.23;5.70;;;;;21.60;98646.00;;;;2069524;28;20485;-63
2024/03/26 01:54:01;;;;;;;8.20;5.33;;;;;21.70;98630.00;;;;2067249;28;20206;-62
2024/03/26 01:55:01;;;;;;;8.75;5.70;;;;;21.60;98661.00;;;;2041244;28;20227;-63
2024/03/26 01:56:02;;;;;;;8.47;4.97;;;;;21.60;98654.00;;;;2044807;28;20216;-61
2024/03/26 01:57:02;;;;;;;9.93;5.00;;;;;21.60;98653.00;;;;2061514;28;20261;-62
2024/03/26 01:58:02;;;;;;;7.67;5.20;;;;;21.70;98639.00;;;;2067699;28;20316;-61
2024/03/26 01:59:03;;;;;;;8.03;5.47;;;;;21.70;98655.00;;;;2053518;28;20223;-61
2024/03/26 02:00:03;;;;;;;10.67;5.60;;;;;21.60;98648.00;;;;2048851;28;20219;-62
2024/03/26 02:01:04;;;;;;;8.07;5.33;;;;;21.60;98649.00;;;;2063477;28;20230;-61
2024/03/26 02:02:04;;;;;;;8.10;5.00;;;;;21.60;98658.00;;;;2062385;28;20219;-61
2024/03/26 02:03:05;;;;;;;7.60;5.17;;;;;21.60;98638.00;;;;2061836;28;20583;-61
2024/03/26 02:04:05;;;;;;;8.13;4.77;;;;;21.60;98635.00;;;;2066841;28;20749;-61
2024/03/26 02:05:06;;;;;;;7.80;4.77;;;;;21.60;98642.00;;;;2047610;28;22050;-61
2024/03/26 02:06:06;;;;;;;8.23;4.97;;;;;21.60;98642.00;;;;2060671;28;20667;-62
2024/03/26 02:07:06;;;;;;;8.17;5.03;;;;;21.60;98631.00;;;;2067947;28;20217;-61
2024/03/26 02:08:07;;;;;;;8.17;4.90;;;;;21.60;98634.00;;;;2065265;28;20871;-61
2024/03/26 02:09:07;;;;;;;10.37;5.00;;;;;21.60;98640.00;;;;2061239;28;21013;-62
2024/03/26 02:10:07;;;;;;;8.30;5.27;;;;;21.60;98640.00;;;;2050349;28;20654;-61
2024/03/26 02:11:08;;;;;;;8.97;5.00;;;;;20.70;98631.00;;;;2060490;28;20598;-61
2024/03/26 02:12:08;;;;;;;8.50;4.80;;;;;21.60;98624.00;;;;2059198;28;20613;-61
2024/03/26 02:13:08;;;;;;;8.13;4.60;;;;;21.60;98637.00;;;;2059909;28;20211;-60
2024/03/26 02:14:09;;;;;;;6.40;4.57;;;;;21.60;98633.00;;;;2060803;28;20226;-61
2024/03/26 02:15:09;;;;;;;7.47;5.10;;;;;21.60;98634.00;;;;2056501;28;20210;-61
2024/03/26 02:16:09;;;;;;;6.57;4.27;;;;;21.60;98630.00;;;;2068130;28;20218;-61
2024/03/26 02:17:12;;;;;;;8.17;5.27;;;;;21.60;98623.00;;;;2058238;28;20234;-60
2024/03/26 02:18:12;;;;;;;7.32;4.68;;;;;21.50;98624.00;;;;2058227;28;20678;-62
2024/03/26 02:19:14;;;;;;;7.83;4.47;;;;;21.60;98622.00;;;;2062408;28;20222;-62
2024/03/26 02:20:14;;;;;;;6.82;4.63;;;;;21.60;98618.00;;;;2049901;28;20214;-61
2024/03/26 02:21:14;;;;;;;6.50;4.40;;;;;21.60;98618.00;;;;2048608;28;20302;-61
2024/03/26 02:22:15;;;;;;;8.47;4.80;;;;;21.50;98616.00;;;;2052674;28;20208;-62
2024/03/26 02:23:21;;;;;;;7.17;4.77;;;;;21.50;98607.00;;;;2068808;28;20218;-61
2024/03/26 02:24:21;;;;;;;7.93;4.60;;;;;21.60;98632.00;;;;2059182;28;20790;-61
2024/03/26 02:25:22;;;;;;;8.93;4.50;;;;;21.50;98610.00;;;;2042625;28;20227;-63
2024/03/26 02:26:22;;;;;;;6.63;4.13;;;;;21.60;98608.00;;;;2053634;28;20704;-62
2024/03/26 02:27:23;;;;;;;6.90;4.00;;;;;20.90;98607.00;;;;2060582;28;20226;-61
2024/03/26 02:28:23;;;;;;;7.30;4.20;;;;;21.60;98606.00;;;;2061131;28;20238;-63
2024/03/26 02:29:23;;;;;;;8.83;4.80;;;;;21.60;98606.00;;;;2055367;28;20214;-62
2024/03/26 02:30:24;;;;;;;7.17;4.70;;;;;21.60;98602.00;;;;2043775;28;20211;-62
2024/03/26 02:31:24;;;;;;;7.50;4.33;;;;;21.60;98602.00;;;;2054894;28;20305;-62
2024/03/26 02:32:24;;;;;;;9.30;4.73;;;;;21.60;98597.00;;;;2055954;28;20222;-61
2024/03/26 02:33:24;;;;;;;6.10;4.00;;;;;21.60;98593.00;;;;2059572;28;20234;-62
2024/03/26 02:34:25;;;;;;;6.80;4.10;;;;;21.60;98602.00;;;;2050879;28;20298;-62
2024/03/26 02:35:25;;;;;;;6.70;4.03;;;;;21.50;98594.00;;;;2060218;28;20219;-61
2024/03/26 02:36:25;;;;;;;5.57;3.67;;;;;21.50;98593.00;;;;2059965;28;20223;-62
2024/03/26 02:37:26;;;;;;;5.93;3.87;;;;;21.50;98591.00;;;;2062225;28;20222;-62
2024/03/26 02:38:26;;;;;;;7.00;3.60;;;;;21.50;98588.00;;;;2062222;28;20238;-61
2024/03/26 02:39:26;;;;;;;6.10;3.70;;;;;21.50;98588.00;;;;2057444;28;20224;-61
2024/03/26 02:40:27;;;;;;;6.90;4.33;;;;;21.50;98585.00;;;;2057765;28;20237;-61
2024/03/26 02:41:27;;;;;;;7.30;4.50;;;;;21.50;98580.00;;;;2061697;28;20250;-61
2024/03/26 02:42:27;;;;;;;6.80;4.43;;;;;21.50;98582.00;;;;2055349;28;20220;-60
2024/03/26 02:43:28;;;;;;;5.77;3.73;;;;;21.50;98578.00;;;;2059049;28;20219;-63
2024/03/26 02:44:28;;;;;;;7.53;4.63;;;;;21.50;98574.00;;;;2050444;28;20223;-61
2024/03/26 02:45:29;;;;;;;6.90;4.00;;;;;21.00;98577.00;;;;2060440;28;20229;-60
2024/03/26 02:46:29;;;;;;;7.90;4.37;;;;;21.50;98573.00;;;;2054330;28;20642;-61
2024/03/26 02:47:29;;;;;;;6.63;3.73;;;;;21.50;98475.00;;;;2056214;28;20273;-63
2024/03/26 02:48:30;;;;;;;7.07;3.90;;;;;21.50;98574.00;;;;2061441;28;21214;-62
2024/03/26 02:49:30;;;;;;;6.93;3.63;;;;;21.50;98645.00;;;;2050708;28;20793;-62
2024/03/26 02:50:30;;;;;;;5.20;3.60;;;;;21.50;98578.00;;;;2058635;28;20644;-62
2024/03/26 02:51:31;;;;;;;5.93;3.70;;;;;21.50;98595.00;;;;2059577;28;21269;-62
2024/03/26 02:52:31;;;;;;;6.97;3.50;;;;;21.50;98571.00;;;;2065750;28;20686;-61
2024/03/26 02:53:31;;;;;;;5.23;3.60;;;;;21.50;98594.00;;;;2061219;28;20707;-62
2024/03/26 02:54:31;;;;;;;7.20;4.50;;;;;21.50;98566.00;;;;2050450;28;20692;-62
2024/03/26 02:55:32;;;;;;;8.03;4.10;;;;;21.50;98568.00;;;;2057206;28;20219;-62
2024/03/26 02:56:32;;;;;;;4.73;3.20;;;;;21.50;98565.00;;;;2056945;28;20245;-62
2024/03/26 02:57:32;;;;;;;7.70;3.80;;;;;21.50;98566.00;;;;2062361;28;20210;-61
2024/03/26 02:58:33;;;;;;;5.77;3.67;;;;;21.10;98561.00;;;;2062080;28;20222;-62
2024/03/26 02:59:33;;;;;;;5.10;3.57;;;;;21.50;98554.00;;;;2050849;28;20251;-61
2024/03/26 03:00:33;;;;;;;5.97;3.27;;;;;21.50;98558.00;;;;2061329;28;20269;-62
2024/03/26 03:01:36;;;;;;;5.30;3.20;;;;;21.50;98545.00;;;;2060142;28;20909;-61
2024/03/26 03:02:37;;;;;;;4.55;3.33;;;;;21.50;98550.00;;;;2061830;28;20248;-61
2024/03/26 03:03:40;;;;;;;4.77;3.03;;;;;21.50;98550.00;;;;2066113;28;20562;-63
2024/03/26 03:04:40;;;;;;;7.50;3.65;;;;;21.50;98556.00;;;;2054515;28;20309;-61
2024/03/26 03:05:41;;;;;;;5.07;3.27;;;;;21.50;98546.00;;;;2064159;28;20694;-61
2024/03/26 03:06:41;;;;;;;5.70;3.53;;;;;21.50;98530.00;;;;2062721;28;21004;-63
2024/03/26 03:07:41;;;;;;;4.97;3.20;;;;;21.50;98550.00;;;;2057832;28;20645;-63
2024/03/26 03:08:42;;;;;;;5.77;2.93;;;;;21.50;98534.00;;;;2068545;28;20595;-61
2024/03/26 03:09:45;;;;;;;7.97;3.40;;;;;21.40;98527.00;;;;2050499;28;20556;-62
2024/03/26 03:10:45;;;;;;;5.93;3.58;;;;;21.50;98531.00;;;;2072520;28;20659;-62
2024/03/26 03:11:46;;;;;;;6.03;3.07;;;;;21.50;98535.00;;;;2073516;28;20220;-61
2024/03/26 03:12:46;;;;;;;5.67;3.23;;;;;21.50;98522.00;;;;2060265;28;20242;-61
2024/03/26 03:13:46;;;;;;;4.57;3.20;;;;;21.40;98521.00;;;;2060168;28;20229;-62
2024/03/26 03:14:47;;;;;;;5.70;3.37;;;;;21.40;98525.00;;;;2049558;28;20223;-60
2024/03/26 03:15:47;;;;;;;5.70;3.70;;;;;21.50;98520.00;;;;2063296;28;20306;-60
2024/03/26 03:16:48;;;;;;;4.70;3.07;;;;;21.40;98518.00;;;;2066512;28;20280;-61
2024/03/26 03:17:48;;;;;;;6.03;2.87;;;;;21.50;98518.00;;;;2056016;28;20227;-62
2024/03/26 03:18:49;;;;;;;5.57;2.93;;;;;21.50;98521.00;;;;2055140;28;20233;-62
2024/03/26 03:19:49;;;;;;;4.50;2.80;;;;;21.50;98524.00;;;;2047200;28;20686;-63
2024/03/26 03:20:50;;;;;;;4.30;2.73;;;;;21.50;98523.00;;;;2060715;28;20302;-63
2024/03/26 03:21:50;;;;;;;5.23;3.03;;;;;21.50;98519.00;;;;2053584;28;20223;-62
2024/03/26 03:22:51;;;;;;;4.67;3.43;;;;;21.40;98517.00;;;;2057373;28;20230;-62
2024/03/26 03:23:51;;;;;;;6.40;3.53;;;;;21.40;98514.00;;;;2066211;28;20232;-62
2024/03/26 03:24:51;;;;;;;5.20;3.57;;;;;21.40;98507.00;;;;2055235;28;20284;-62
2024/03/26 03:25:55;;;;;;;6.27;3.10;;;;;21.40;98511.00;;;;2068351;28;20229;-62
2024/03/26 03:26:55;;;;;;;5.40;3.00;;;;;21.40;98509.00;;;;2055374;28;20222;-62
2024/03/26 03:27:56;;;;;;;4.60;3.00;;;;;21.40;98510.00;;;;2060782;28;20280;-61
2024/03/26 03:28:56;;;;;;;6.47;3.13;;;;;21.40;98503.00;;;;2062599;28;20293;-60
2024/03/26 03:29:56;;;;;;;5.33;3.10;;;;;21.40;98504.00;;;;2049063;28;20722;-61
2024/03/26 03:30:57;;;;;;;5.03;2.73;;;;;21.40;98530.00;;;;2062677;28;20702;-60
2024/03/26 03:31:57;;;;;;;5.30;2.80;;;;;21.40;98498.00;;;;2063553;28;20946;-61
2024/03/26 03:32:57;;;;;;;4.10;3.20;;;;;21.40;98497.00;;;;2059558;28;20215;-61
2024/03/26 03:33:58;;;;;;;5.10;2.90;;;;;21.40;98503.00;;;;2063822;28;20217;-61
2024/03/26 03:34:58;;;;;;;4.13;2.90;;;;;21.40;98505.00;;;;2053908;28;20222;-61
2024/03/26 03:35:59;;;;;;;3.70;2.37;;;;;21.40;98510.00;;;;2065331;28;20221;-61
2024/03/26 03:36:59;;;;;;;5.70;2.97;;;;;21.40;98496.00;;;;2062710;28;20811;-60
2024/03/26 03:38:00;;;;;;;5.10;3.20;;;;;21.40;98496.00;;;;2060990;28;20245;-61
2024/03/26 03:39:00;;;;;;;5.53;2.80;;;;;21.40;98486.00;;;;2068144;28;20244;-61
2024/03/26 03:40:00;;;;;;;5.60;2.93;;;;;21.40;98483.00;;;;2057814;28;20225;-60
2024/03/26 03:41:01;;;;;;;4.60;2.93;;;;;21.40;98486.00;;;;2064313;28;20218;-61
2024/03/26 03:42:01;;;;;;;4.20;2.63;;;;;21.40;98482.00;;;;2065893;28;20257;-62
2024/03/26 03:43:01;;;;;;;4.43;2.70;;;;;21.40;98479.00;;;;2059493;28;20214;-62
2024/03/26 03:44:02;;;;;;;4.10;2.37;;;;;21.40;98482.00;;;;2059665;28;20226;-62
2024/03/26 03:45:03;;;;;;;5.10;2.47;;;;;21.40;98546.00;;;;2049575;28;20234;-62
2024/03/26 03:46:04;;;;;;;4.35;2.35;;;;;21.40;98480.00;;;;2061860;28;20269;-62
2024/03/26 03:47:05;;;;;;;4.20;2.57;;;;;21.40;98469.00;;;;2064025;28;20566;-60
2024/03/26 03:48:06;;;;;;;4.68;2.25;;;;;21.40;98477.00;;;;2066171;28;20202;-63
2024/03/26 03:49:06;;;;;;;4.57;2.53;;;;;21.40;98483.00;;;;2060026;28;20210;-61
2024/03/26 03:50:06;;;;;;;4.30;2.30;;;;;21.40;98479.00;;;;2052475;28;20584;-60
2024/03/26 03:51:07;;;;;;;4.67;2.60;;;;;21.40;98482.00;;;;2059934;28;20946;-61
2024/03/26 03:52:09;;;;;;;4.10;2.07;;;;;21.40;98478.00;;;;2061623;28;20218;-60
2024/03/26 03:53:09;;;;;;;4.00;2.45;;;;;21.40;98480.00;;;;2062231;28;20207;-62
2024/03/26 03:54:09;;;;;;;5.13;2.60;;;;;21.40;98472.00;;;;2060204;28;20241;-62
2024/03/26 03:55:10;;;;;;;3.77;2.40;;;;;21.40;98479.00;;;;2051586;28;20215;-64
2024/03/26 03:56:10;;;;;;;4.47;2.53;;;;;21.40;98470.00;;;;2050336;28;21035;-62
2024/03/26 03:57:10;;;;;;;4.17;2.20;;;;;21.30;98476.00;;;;2062075;28;20221;-61
2024/03/26 03:58:11;;;;;;;3.77;2.60;;;;;21.40;98462.00;;;;2065713;28;20219;-60
2024/03/26 03:59:11;;;;;;;6.57;2.80;;;;;21.30;98317.00;;;;2057900;28;20265;-60
2024/03/26 04:00:11;;;;;;;6.70;2.60;;;;;21.30;98472.00;;;;2049970;28;20527;-61
2024/03/26 04:01:12;;;;;;;5.27;2.17;;;;;21.30;98469.00;;;;2065288;28;20779;-61
2024/03/26 04:02:12;;;;;;;5.57;2.60;;;;;21.40;98470.00;;;;2063968;28;20210;-61
2024/03/26 04:03:12;;;;;;;4.50;2.63;;;;;21.30;98466.00;;;;2062102;28;20302;-60
2024/03/26 04:04:13;;;;;;;3.97;2.70;;;;;21.30;98478.00;;;;2065233;28;20450;-61
2024/03/26 04:05:13;;;;;;;4.50;2.50;;;;;21.30;98464.00;;;;2052174;28;20214;-61
2024/03/26 04:06:14;;;;;;;4.43;2.30;;;;;21.40;98465.00;;;;2060084;28;20617;-61
2024/03/26 04:07:14;;;;;;;3.77;2.60;;;;;21.30;98455.00;;;;2061829;28;20210;-60
2024/03/26 04:08:14;;;;;;;4.60;2.30;;;;;21.40;98455.00;;;;2068055;28;20275;-60
2024/03/26 04:09:15;;;;;;;3.93;2.27;;;;;21.40;98458.00;;;;2060967;28;20233;-60
2024/03/26 04:10:15;;;;;;;3.17;1.80;;;;;21.30;98450.00;;;;2048716;28;20202;-61
2024/03/26 04:11:15;;;;;;;3.80;2.20;;;;;21.30;98454.00;;;;2065906;28;20241;-60
2024/03/26 04:12:16;;;;;;;3.57;2.27;;;;;21.30;98452.00;;;;2064068;28;20214;-60
2024/03/26 04:13:16;;;;;;;4.57;2.30;;;;;21.30;98445.00;;;;2060999;28;20265;-61
2024/03/26 04:14:16;;;;;;;3.57;2.20;;;;;21.30;98445.00;;;;2065502;28;20242;-61
2024/03/26 04:15:17;;;;;;;4.30;2.13;;;;;21.30;98451.00;;;;2050941;28;20219;-60
2024/03/26 04:16:18;;;;;;;4.50;2.67;;;;;21.30;98449.00;;;;2061237;28;20232;-61
2024/03/26 04:17:18;;;;;;;4.07;2.50;;;;;21.30;98450.00;;;;2068309;28;20214;-61
2024/03/26 04:18:19;;;;;;;3.73;2.13;;;;;21.30;98309.00;;;;2061852;28;20249;-62
2024/03/26 04:19:19;;;;;;;3.70;2.00;;;;;21.30;98447.00;;;;2063756;28;20241;-62
2024/03/26 04:20:19;;;;;;;3.53;1.97;;;;;21.30;98437.00;;;;2057294;28;20324;-62
2024/03/26 04:21:20;;;;;;;3.73;2.30;;;;;21.30;98434.00;;;;2070622;28;20217;-62
2024/03/26 04:22:20;;;;;;;4.87;2.03;;;;;21.30;98434.00;;;;2059657;28;20307;-61
2024/03/26 04:23:20;;;;;;;4.50;2.10;;;;;21.30;98427.00;;;;2056599;28;20229;-61
2024/03/26 04:24:21;;;;;;;3.50;2.07;;;;;21.30;98422.00;;;;2059526;28;20215;-62
2024/03/26 04:25:21;;;;;;;5.10;2.40;;;;;21.30;98436.00;;;;2043476;28;20250;-61
2024/03/26 04:26:21;;;;;;;3.20;2.00;;;;;21.30;98432.00;;;;2064500;28;20585;-61
2024/03/26 04:27:22;;;;;;;3.80;1.90;;;;;21.30;98429.00;;;;2052785;28;20550;-60
2024/03/26 04:28:23;;;;;;;4.00;2.07;;;;;21.30;98422.00;;;;2061192;28;20808;-61
2024/03/26 04:29:24;;;;;;;3.25;2.10;;;;;21.30;98426.00;;;;2052937;28;20306;-61
2024/03/26 04:30:25;;;;;;;3.08;1.95;;;;;21.30;98422.00;;;;2053510;28;20760;-60
2024/03/26 04:31:25;;;;;;;3.33;2.27;;;;;21.20;98420.00;;;;2067885;28;20214;-60
2024/03/26 04:32:25;;;;;;;3.70;2.27;;;;;21.30;98423.00;;;;2059796;28;20238;-61
2024/03/26 04:33:25;;;;;;;4.03;2.00;;;;;21.30;98415.00;;;;2059360;28;20219;-61
2024/03/26 04:34:26;;;;;;;3.60;2.10;;;;;21.30;98410.00;;;;2057519;28;20221;-61
2024/03/26 04:35:26;;;;;;;3.53;2.07;;;;;21.30;98410.00;;;;2061258;28;20250;-60
2024/03/26 04:36:26;;;;;;;3.77;1.90;;;;;21.30;98421.00;;;;2060020;28;20211;-60
2024/03/26 04:37:27;;;;;;;4.07;2.07;;;;;21.30;98418.00;;;;2059263;28;20230;-61
2024/03/26 04:38:27;;;;;;;3.50;2.00;;;;;21.30;98423.00;;;;2063138;28;20213;-61
2024/03/26 04:39:27;;;;;;;3.53;2.00;;;;;21.30;98418.00;;;;2065149;28;20270;-61
2024/03/26 04:40:28;;;;;;;3.30;1.80;;;;;21.30;98414.00;;;;2054477;28;20214;-61
2024/03/26 04:41:28;;;;;;;4.00;2.03;;;;;21.30;98413.00;;;;2060232;28;20679;-61
2024/03/26 04:42:28;;;;;;;4.50;1.80;;;;;21.30;98405.00;;;;2056966;28;20211;-61
2024/03/26 04:43:29;;;;;;;3.40;1.63;;;;;21.30;98416.00;;;;2060018;28;20207;-61
2024/03/26 04:44:29;;;;;;;3.93;2.13;;;;;21.30;98406.00;;;;2049588;28;21017;-62
2024/03/26 04:45:29;;;;;;;3.03;1.80;;;;;21.20;98434.00;;;;2057786;28;20766;-62
2024/03/26 04:46:30;;;;;;;3.60;2.33;;;;;21.30;98406.00;;;;2069937;28;20862;-66
2024/03/26 04:47:30;;;;;;;7.60;2.27;;;;;21.30;98409.00;;;;2059818;28;20211;-63
2024/03/26 04:48:30;;;;;;;3.40;1.80;;;;;21.30;98413.00;;;;2054823;28;20215;-64
2024/03/26 04:49:31;;;;;;;4.23;2.10;;;;;21.20;98409.00;;;;2058562;28;20228;-63
2024/03/26 04:50:31;;;;;;;3.60;1.97;;;;;21.20;98405.00;;;;2068667;28;20218;-62
2024/03/26 04:51:31;;;;;;;4.00;1.83;;;;;21.20;98395.00;;;;2062950;28;20211;-62
2024/03/26 04:52:32;;;;;;;3.53;1.90;;;;;21.20;98404.00;;;;2060935;28;20762;-62
2024/03/26 04:53:32;;;;;;;5.50;1.90;;;;;21.20;98412.00;;;;2064687;28;20722;-62
2024/03/26 04:54:33;;;;;;;3.40;2.00;;;;;21.20;98398.00;;;;2057893;28;20449;-62
2024/03/26 04:55:34;;;;;;;3.60;1.80;;;;;21.20;98399.00;;;;2061490;28;20302;-62
2024/03/26 04:56:34;;;;;;;3.60;1.60;;;;;21.20;98402.00;;;;2059602;28;20222;-62
2024/03/26 04:57:34;;;;;;;3.30;1.77;;;;;21.20;98406.00;;;;2061564;28;20257;-62
2024/03/26 04:58:35;;;;;;;2.97;1.60;;;;;21.20;98400.00;;;;2060925;28;20226;-61
2024/03/26 04:59:35;;;;;;;3.43;1.70;;;;;21.20;98391.00;;;;2051413;28;20215;-62
2024/03/26 05:00:35;;;;;;;3.87;1.60;;;;;21.20;98397.00;;;;2064563;28;20298;-62